createdAt,value
2022-11-23T00:02:25.167Z,0.86
2022-11-23T00:04:55.281Z,0.84
2022-11-23T00:07:25.418Z,0.85
2022-11-23T00:09:55.661Z,0.80
2022-11-23T00:12:28.361Z,0.81
2022-11-23T00:14:58.424Z,0.75
2022-11-23T00:17:28.446Z,1.05
2022-11-23T00:19:58.547Z,1.14
2022-11-23T00:22:28.722Z,1.13
2022-11-23T00:24:58.815Z,1.15
2022-11-23T00:27:31.521Z,1.22
2022-11-23T00:30:01.723Z,1.22
2022-11-23T00:32:33.141Z,1.23
2022-11-23T00:35:03.289Z,1.21
2022-11-23T00:37:34.487Z,1.25
2022-11-23T00:40:04.544Z,1.19
2022-11-23T00:42:38.352Z,1.19
2022-11-23T00:45:10.304Z,1.08
2022-11-23T00:47:40.944Z,1.11
2022-11-23T00:50:12.256Z,1.25
2022-11-23T00:52:42.382Z,1.23
2022-11-23T00:55:12.931Z,1.17
2022-11-23T00:57:45.615Z,1.14
2022-11-23T01:00:17.100Z,1.19
2022-11-23T01:02:47.175Z,1.24
2022-11-23T01:05:17.343Z,1.45
2022-11-23T01:07:47.429Z,1.63
2022-11-23T01:10:17.654Z,1.73
2022-11-23T01:12:50.315Z,1.77
2022-11-23T01:15:20.446Z,1.83
2022-11-23T01:17:50.550Z,1.83
2022-11-23T01:20:20.845Z,1.91
2022-11-23T01:22:51.357Z,1.93
2022-11-23T01:25:21.561Z,1.81
2022-11-23T01:27:55.243Z,1.90
2022-11-23T01:30:26.481Z,2.10
2022-11-23T01:32:56.716Z,2.20
2022-11-23T01:35:27.944Z,2.28
2022-11-23T01:37:58.459Z,2.34
2022-11-23T01:40:28.528Z,2.40
2022-11-23T01:43:03.835Z,2.38
2022-11-23T01:46:02.064Z,2.35
2022-11-23T01:48:36.874Z,2.39
2022-11-23T01:51:13.767Z,2.41
2022-11-23T01:53:45.166Z,2.40
2022-11-23T01:56:26.275Z,2.36
2022-11-23T01:59:04.605Z,2.16
2022-11-23T02:01:34.863Z,2.08
2022-11-23T02:04:06.303Z,2.11
2022-11-23T02:06:37.747Z,2.12
2022-11-23T02:09:08.658Z,2.05
2022-11-23T02:11:38.770Z,2.04
2022-11-23T02:14:12.351Z,2.02
2022-11-23T02:16:43.353Z,2.01
2022-11-23T02:19:28.693Z,1.89
2022-11-23T02:22:00.361Z,1.74
2022-11-23T02:24:39.968Z,1.59
2022-11-23T02:27:18.658Z,1.41
2022-11-23T02:29:50.916Z,1.28
2022-11-23T02:32:27.557Z,1.26
2022-11-23T02:34:59.421Z,1.21
2022-11-23T02:37:30.175Z,1.17
2022-11-23T02:40:04.440Z,1.07
2022-11-23T02:42:41.659Z,0.99
2022-11-23T02:45:26.004Z,0.82
2022-11-23T02:47:56.752Z,0.66
2022-11-23T02:50:27.163Z,0.70
2022-11-23T02:52:57.297Z,0.70
2022-11-23T02:55:27.682Z,0.69
2022-11-23T02:58:00.365Z,0.61
2022-11-23T03:00:31.640Z,0.56
2022-11-23T03:03:05.740Z,0.59
2022-11-23T03:05:37.422Z,0.50
2022-11-23T03:08:09.635Z,0.44
2022-11-23T03:10:41.442Z,0.39
2022-11-23T03:13:14.704Z,0.28
2022-11-23T03:15:45.635Z,0.19
2022-11-23T03:18:15.773Z,0.24
2022-11-23T03:20:46.641Z,0.17
2022-11-23T03:23:16.684Z,0.20
2022-11-23T03:25:48.741Z,0.28
2022-11-23T03:28:21.378Z,0.27
2022-11-23T03:30:51.716Z,0.34
2022-11-23T03:33:22.278Z,0.43
2022-11-23T03:35:53.253Z,0.42
2022-11-23T03:38:26.993Z,0.47
2022-11-23T03:40:57.450Z,0.52
2022-11-23T03:43:43.473Z,0.70
2022-11-23T03:46:13.457Z,0.85
2022-11-23T03:48:43.547Z,1.02
2022-11-23T03:51:14.093Z,1.17
2022-11-23T03:53:44.097Z,1.29
2022-11-23T03:56:14.282Z,1.31
2022-11-23T03:58:50.755Z,1.40
2022-11-23T04:01:22.094Z,1.48
2022-11-23T04:03:59.167Z,1.49
2022-11-23T04:06:48.585Z,1.50
2022-11-23T04:09:25.339Z,1.64
2022-11-23T04:12:15.339Z,1.68
2022-11-23T04:14:49.303Z,1.71
2022-11-23T04:17:19.374Z,1.75
2022-11-23T04:19:49.460Z,1.85
2022-11-23T04:22:19.718Z,1.93
2022-11-23T04:24:50.823Z,1.99
2022-11-23T04:27:21.781Z,2.07
2022-11-23T04:29:54.488Z,2.14
2022-11-23T04:32:24.563Z,2.18
2022-11-23T04:34:54.709Z,2.17
2022-11-23T04:37:25.039Z,2.18
2022-11-23T04:39:55.885Z,2.16
2022-11-23T04:42:43.637Z,2.12
2022-11-23T04:45:16.698Z,2.16
2022-11-23T04:47:47.292Z,2.18
2022-11-23T04:50:19.693Z,2.19
2022-11-23T04:52:54.180Z,2.23
2022-11-23T04:55:29.126Z,2.15
2022-11-23T04:58:01.333Z,2.09
2022-11-23T05:00:36.849Z,1.89
2022-11-23T05:03:09.688Z,1.77
2022-11-23T05:05:43.465Z,1.67
2022-11-23T05:08:14.113Z,1.59
2022-11-23T05:10:53.515Z,1.59
2022-11-23T05:13:23.614Z,1.45
2022-11-23T05:15:56.715Z,1.32
2022-11-23T05:18:31.060Z,1.20
2022-11-23T05:21:01.604Z,1.16
2022-11-23T05:23:32.673Z,1.19
2022-11-23T05:26:03.121Z,1.17
2022-11-23T05:28:41.988Z,1.18
2022-11-23T05:31:19.522Z,1.24
2022-11-23T05:33:50.725Z,1.22
2022-11-23T05:36:28.422Z,1.23
2022-11-23T05:38:58.512Z,1.22
2022-11-23T05:41:33.728Z,1.20
2022-11-23T05:44:05.809Z,1.08
2022-11-23T05:46:38.534Z,0.96
2022-11-23T05:49:08.678Z,0.99
2022-11-23T05:51:41.099Z,1.03
2022-11-23T05:54:12.190Z,1.02
2022-11-23T05:56:46.713Z,0.97
2022-11-23T05:59:20.308Z,1.02
2022-11-23T06:01:57.960Z,1.13
2022-11-23T06:04:33.217Z,1.20
2022-11-23T06:07:04.333Z,1.25
2022-11-23T06:09:44.817Z,1.27
2022-11-23T06:12:15.571Z,1.30
2022-11-23T06:14:45.624Z,1.37
2022-11-23T06:17:20.815Z,1.40
2022-11-23T06:19:52.972Z,1.37
2022-11-23T06:22:23.231Z,1.29
2022-11-23T06:25:01.055Z,1.32
2022-11-23T06:27:43.169Z,1.32
2022-11-23T06:30:20.765Z,1.34
2022-11-23T06:32:54.057Z,1.25
2022-11-23T06:35:26.230Z,1.19
2022-11-23T06:37:56.416Z,1.04
2022-11-23T06:40:26.807Z,1.04
2022-11-23T06:43:02.014Z,1.22
2022-11-23T06:45:40.940Z,1.25
2022-11-23T06:48:17.291Z,1.25
2022-11-23T06:50:50.553Z,1.10
2022-11-23T06:53:22.655Z,1.04
2022-11-23T06:56:01.835Z,1.01
2022-11-23T06:58:34.217Z,0.96
2022-11-23T07:01:09.532Z,0.88
2022-11-23T07:03:48.283Z,0.85
2022-11-23T07:06:25.573Z,0.84
2022-11-23T07:08:58.814Z,0.83
2022-11-23T07:11:40.208Z,0.77
2022-11-23T07:14:10.377Z,0.82
2022-11-23T07:16:42.811Z,0.82
2022-11-23T07:19:16.864Z,0.80
2022-11-23T07:21:48.637Z,0.89
2022-11-23T07:24:19.550Z,0.86
2022-11-23T07:26:49.760Z,0.91
2022-11-23T07:29:19.756Z,1.05
2022-11-23T07:31:49.881Z,1.07
2022-11-23T07:34:22.689Z,1.17
2022-11-23T07:36:52.816Z,1.26
2022-11-23T07:39:36.393Z,1.28
2022-11-23T07:42:31.758Z,1.35
2022-11-23T07:45:03.512Z,1.37
2022-11-23T07:47:33.699Z,1.39
2022-11-23T07:50:07.076Z,1.52
2022-11-23T07:52:38.438Z,1.65
2022-11-23T07:55:09.966Z,1.76
2022-11-23T07:57:40.209Z,1.94
2022-11-23T08:00:13.300Z,1.99
2022-11-23T08:03:04.321Z,2.13
2022-11-23T08:05:37.954Z,2.09
2022-11-23T08:08:08.557Z,2.23
2022-11-23T08:10:45.138Z,2.34
2022-11-23T08:13:17.328Z,2.40
2022-11-23T08:15:53.293Z,2.44
2022-11-23T08:18:25.330Z,2.56
2022-11-23T08:21:01.804Z,2.63
2022-11-23T08:23:32.619Z,2.75
2022-11-23T08:26:10.344Z,2.65
2022-11-23T08:28:43.372Z,2.61
2022-11-23T08:31:15.185Z,2.66
2022-11-23T08:33:45.561Z,2.69
2022-11-23T08:36:18.503Z,2.68
2022-11-23T08:38:51.414Z,2.71
2022-11-23T08:41:21.820Z,2.64
2022-11-23T08:43:52.163Z,2.84
2022-11-23T08:46:22.248Z,2.99
2022-11-23T08:48:52.225Z,3.00
2022-11-23T08:51:25.241Z,3.05
2022-11-23T08:53:55.414Z,3.06
2022-11-23T08:56:25.398Z,3.25
2022-11-23T08:58:55.423Z,3.34
2022-11-23T09:01:25.532Z,3.44
2022-11-23T09:03:55.634Z,3.53
2022-11-23T09:06:29.245Z,3.66
2022-11-23T09:08:59.391Z,3.84
2022-11-23T09:11:29.864Z,4.05
2022-11-23T09:13:59.994Z,4.09
2022-11-23T09:16:33.916Z,4.18
2022-11-23T09:19:04.488Z,4.38
2022-11-23T09:21:39.248Z,4.08
2022-11-23T09:24:10.064Z,4.25
2022-11-23T09:26:40.237Z,4.04
2022-11-23T09:29:11.550Z,4.32
2022-11-23T09:31:42.421Z,4.54
2022-11-23T09:34:15.568Z,4.69
2022-11-23T09:36:48.255Z,4.76
2022-11-23T09:39:18.708Z,4.37
2022-11-23T09:42:10.729Z,4.77
2022-11-23T09:45:10.093Z,4.89
2022-11-23T09:48:12.523Z,4.88
2022-11-23T09:50:53.027Z,4.96
2022-11-23T09:53:36.334Z,5.03
2022-11-23T09:56:06.955Z,5.08
2022-11-23T09:58:43.259Z,5.17
2022-11-23T10:01:18.836Z,5.41
2022-11-23T10:03:49.632Z,5.58
2022-11-23T10:06:25.650Z,5.70
2022-11-23T10:09:24.832Z,5.69
2022-11-23T10:12:17.874Z,5.65
2022-11-23T10:15:05.737Z,5.68
2022-11-23T10:18:10.890Z,5.96
2022-11-23T10:20:56.672Z,6.07
2022-11-23T10:23:49.083Z,6.09
2022-11-23T10:26:26.357Z,6.20
2022-11-23T10:28:58.818Z,6.12
2022-11-23T10:31:29.006Z,6.29
2022-11-23T10:34:11.123Z,6.45
2022-11-23T10:36:41.898Z,6.52
2022-11-23T10:39:25.641Z,6.68
2022-11-23T10:42:06.378Z,6.83
2022-11-23T10:44:43.044Z,6.87
2022-11-23T10:47:13.137Z,6.94
2022-11-23T10:50:01.125Z,6.90
2022-11-23T10:52:34.202Z,6.92
2022-11-23T10:55:09.275Z,7.07
2022-11-23T10:57:48.847Z,7.10
2022-11-23T11:00:30.053Z,6.91
2022-11-23T11:03:03.445Z,6.73
2022-11-23T11:06:07.369Z,6.73
2022-11-23T11:08:33.844Z,6.73
2022-11-23T11:11:07.784Z,6.97
2022-11-23T11:13:47.688Z,7.02
2022-11-23T11:16:26.047Z,7.23
2022-11-23T11:18:56.608Z,7.26
2022-11-23T11:21:34.926Z,7.22
2022-11-23T11:24:09.888Z,7.33
2022-11-23T11:29:41.361Z,7.38
2022-11-23T11:32:17.833Z,7.43
2022-11-23T11:34:54.977Z,7.56
2022-11-23T11:37:37.011Z,7.69
2022-11-23T11:40:33.268Z,7.72
2022-11-23T11:43:08.636Z,7.74
2022-11-23T11:46:13.080Z,7.91
2022-11-23T11:51:31.738Z,8.06
2022-11-23T11:54:09.260Z,8.20
2022-11-23T11:56:45.080Z,8.20
2022-11-23T12:05:01.900Z,8.13
2022-11-23T12:07:36.267Z,8.08
2022-11-23T12:10:18.094Z,7.99
2022-11-23T12:12:48.766Z,8.13
2022-11-23T12:47:51.786Z,8.13
2022-11-23T12:53:47.038Z,8.28
2022-11-23T12:56:44.980Z,8.21
2022-11-23T12:59:19.028Z,8.12
2022-11-23T13:02:00.082Z,8.08
2022-11-23T13:10:59.749Z,8.20
2022-11-23T13:19:52.082Z,8.23
2022-11-23T13:25:31.164Z,8.29
2022-11-23T13:28:07.542Z,8.39
2022-11-23T13:37:11.279Z,8.43
2022-11-23T13:45:36.958Z,8.43
2022-11-23T13:48:55.014Z,8.24
2022-11-23T13:54:03.110Z,7.92
2022-11-23T13:56:38.184Z,7.94
2022-11-23T13:59:37.548Z,7.89
2022-11-23T14:02:33.035Z,7.80
2022-11-23T14:10:39.369Z,7.72
2022-11-23T14:13:22.613Z,7.65
2022-11-23T14:16:01.482Z,7.61
2022-11-23T14:19:09.247Z,7.44
2022-11-23T14:21:53.186Z,7.37
2022-11-23T14:25:05.272Z,7.35
2022-11-23T14:31:01.939Z,7.24
2022-11-23T14:36:49.579Z,7.15
2022-11-23T14:39:56.436Z,7.07
2022-11-23T14:42:30.509Z,7.17
2022-11-23T14:45:07.510Z,7.00
2022-11-23T14:47:37.628Z,6.87
2022-11-23T14:50:08.975Z,6.81
2022-11-23T14:52:41.610Z,6.86
2022-11-23T14:55:23.028Z,6.76
2022-11-23T15:06:31.487Z,6.87
2022-11-23T15:11:49.191Z,6.74
2022-11-23T15:14:29.330Z,6.58
2022-11-23T15:16:59.392Z,6.40
2022-11-23T15:19:32.145Z,6.42
2022-11-23T15:22:03.343Z,6.26
2022-11-23T15:24:33.620Z,6.15
2022-11-23T15:27:12.704Z,5.99
2022-11-23T15:29:43.191Z,5.91
2022-11-23T15:32:39.366Z,5.75
2022-11-23T15:37:53.387Z,5.51
2022-11-23T15:40:33.845Z,5.42
2022-11-23T15:43:04.230Z,5.19
2022-11-23T15:48:42.725Z,5.30
2022-11-23T15:51:30.853Z,5.40
2022-11-23T15:54:04.188Z,5.58
2022-11-23T15:56:37.395Z,5.36
2022-11-23T16:02:09.618Z,5.24
2022-11-23T16:04:43.840Z,5.21
2022-11-23T16:07:20.802Z,5.18
2022-11-23T16:09:53.916Z,5.27
2022-11-23T16:12:30.821Z,5.33
2022-11-23T16:15:41.492Z,5.42
2022-11-23T16:18:46.369Z,5.64
2022-11-23T16:24:01.127Z,5.90
2022-11-23T16:26:34.621Z,5.95
2022-11-23T16:29:05.922Z,6.13
2022-11-23T16:31:42.247Z,6.32
2022-11-23T16:34:16.233Z,6.55
2022-11-23T16:36:46.418Z,6.64
2022-11-23T16:39:19.129Z,6.66
2022-11-23T16:41:49.236Z,6.76
2022-11-23T16:44:19.482Z,6.87
2022-11-23T16:46:50.348Z,6.91
2022-11-23T16:49:23.507Z,6.93
2022-11-23T16:51:57.545Z,6.99
2022-11-23T16:54:30.305Z,7.07
2022-11-23T16:57:00.374Z,7.16
2022-11-23T16:59:30.485Z,7.02
2022-11-23T17:02:01.309Z,6.93
2022-11-23T17:04:32.440Z,6.82
2022-11-23T17:07:03.758Z,6.84
2022-11-23T17:09:36.618Z,6.76
2022-11-23T17:12:14.726Z,6.68
2022-11-23T17:14:45.857Z,6.53
2022-11-23T17:17:22.290Z,6.42
2022-11-23T17:19:53.542Z,6.37
2022-11-23T17:22:24.207Z,6.21
2022-11-23T17:24:56.944Z,5.98
2022-11-23T17:27:28.497Z,5.98
2022-11-23T17:30:03.295Z,5.96
2022-11-23T17:32:33.374Z,5.93
2022-11-23T17:35:03.405Z,5.95
2022-11-23T17:37:33.585Z,5.91
2022-11-23T17:40:06.885Z,5.93
2022-11-23T17:42:36.946Z,5.92
2022-11-23T17:45:09.375Z,5.92
2022-11-23T17:47:40.824Z,5.90
2022-11-23T17:50:17.884Z,5.84
2022-11-23T17:52:48.242Z,5.72
2022-11-23T17:55:21.149Z,5.71
2022-11-23T17:57:51.276Z,5.68
2022-11-23T18:00:24.876Z,5.77
2022-11-23T18:02:55.998Z,5.78
2022-11-23T18:05:25.989Z,5.72
2022-11-23T18:07:56.075Z,5.73
2022-11-23T18:10:28.908Z,5.74
2022-11-23T18:12:59.091Z,5.73
2022-11-23T18:15:30.376Z,5.80
2022-11-23T18:18:04.678Z,5.88
2022-11-23T18:20:35.008Z,5.77
2022-11-23T18:23:05.240Z,5.86
2022-11-23T18:25:37.821Z,5.93
2022-11-23T18:28:08.283Z,5.97
2022-11-23T18:30:38.391Z,5.95
2022-11-23T18:33:09.570Z,5.84
2022-11-23T18:35:40.036Z,5.81
2022-11-23T18:38:10.241Z,5.80
2022-11-23T18:40:43.282Z,5.77
2022-11-23T18:43:13.389Z,5.82
2022-11-23T18:45:43.909Z,5.86
2022-11-23T18:48:14.349Z,5.87
2022-11-23T18:50:44.428Z,5.85
2022-11-23T18:53:15.017Z,5.91
2022-11-23T18:55:47.721Z,5.90
2022-11-23T18:58:18.281Z,5.97
2022-11-23T19:00:48.514Z,6.06
2022-11-23T19:03:18.568Z,5.99
2022-11-23T19:05:48.705Z,5.93
2022-11-23T19:08:18.902Z,5.99
2022-11-23T19:10:51.736Z,5.99
2022-11-23T19:13:22.081Z,5.98
2022-11-23T19:15:52.185Z,5.96
2022-11-23T19:18:22.506Z,5.95
2022-11-23T19:20:53.388Z,5.96
2022-11-23T19:23:29.431Z,6.02
2022-11-23T19:26:06.926Z,5.87
2022-11-23T19:28:37.776Z,5.94
2022-11-23T19:31:16.196Z,5.98
2022-11-23T19:33:47.720Z,5.95
2022-11-23T19:36:20.937Z,6.04
2022-11-23T19:38:51.679Z,6.08
2022-11-23T19:41:29.856Z,6.08
2022-11-23T19:44:02.914Z,6.19
2022-11-23T19:46:34.421Z,6.17
2022-11-23T19:49:04.803Z,6.21
2022-11-23T19:51:35.009Z,6.19
2022-11-23T19:54:06.189Z,6.18
2022-11-23T19:56:39.941Z,6.27
2022-11-23T19:59:09.951Z,6.27
2022-11-23T20:01:40.462Z,6.30
2022-11-23T20:04:12.311Z,6.16
2022-11-23T20:06:44.825Z,6.12
2022-11-23T20:09:19.381Z,6.21
2022-11-23T20:11:52.483Z,6.28
2022-11-23T20:14:22.829Z,6.38
2022-11-23T20:16:52.871Z,6.15
2022-11-23T20:19:22.928Z,6.23
2022-11-23T20:21:53.359Z,6.20
2022-11-23T20:24:23.433Z,6.49
2022-11-23T20:26:56.080Z,6.46
2022-11-23T20:29:27.950Z,6.48
2022-11-23T20:31:58.167Z,6.62
2022-11-23T20:34:28.561Z,6.45
2022-11-23T20:37:00.087Z,6.30
2022-11-23T20:39:30.150Z,6.43
2022-11-23T20:42:02.860Z,6.45
2022-11-23T20:44:34.220Z,6.40
2022-11-23T20:47:04.661Z,6.36
2022-11-23T20:49:35.209Z,6.22
2022-11-23T20:52:05.417Z,6.26
2022-11-23T20:54:36.173Z,6.42
2022-11-23T20:57:09.217Z,6.23
2022-11-23T20:59:39.238Z,6.21
2022-11-23T21:02:11.773Z,6.13
2022-11-23T21:04:41.908Z,6.10
2022-11-23T21:07:12.125Z,5.97
2022-11-23T21:09:42.175Z,5.94
2022-11-23T21:12:27.289Z,5.88
2022-11-23T21:14:57.335Z,5.85
2022-11-23T21:17:27.348Z,5.91
2022-11-23T21:19:57.407Z,5.97
2022-11-23T21:22:27.466Z,5.96
2022-11-23T21:24:57.513Z,5.87
2022-11-23T21:27:30.336Z,5.91
2022-11-23T21:30:01.086Z,6.00
2022-11-23T21:32:31.196Z,5.90
2022-11-23T21:35:01.248Z,5.93
2022-11-23T21:37:31.586Z,5.77
2022-11-23T21:40:01.654Z,5.74
2022-11-23T21:42:34.406Z,5.65
2022-11-23T21:45:04.824Z,5.71
2022-11-23T21:47:35.645Z,5.62
2022-11-23T21:50:06.015Z,5.63
2022-11-23T21:52:36.097Z,5.76
2022-11-23T21:55:06.592Z,5.86
2022-11-23T21:57:39.218Z,5.82
2022-11-23T22:00:12.436Z,5.88
2022-11-23T22:02:42.916Z,5.85
2022-11-23T22:05:12.928Z,5.91
2022-11-23T22:07:55.124Z,5.99
2022-11-23T22:10:33.025Z,6.16
2022-11-23T22:13:05.671Z,6.18
2022-11-23T22:15:35.661Z,6.11
2022-11-23T22:18:06.029Z,6.18
2022-11-23T22:20:37.255Z,6.26
2022-11-23T22:23:07.388Z,6.28
2022-11-23T22:25:37.403Z,6.13
2022-11-23T22:28:10.522Z,6.14
2022-11-23T22:30:40.681Z,6.03
2022-11-23T22:33:10.820Z,5.96
2022-11-23T22:35:40.846Z,5.91
2022-11-23T22:38:10.860Z,5.74
2022-11-23T22:40:41.014Z,5.65
2022-11-23T22:43:13.626Z,5.64
2022-11-23T22:45:43.778Z,5.55
2022-11-23T22:48:13.895Z,5.49
2022-11-23T22:50:43.980Z,5.33
2022-11-23T22:53:14.006Z,5.27
2022-11-23T22:55:44.006Z,5.28
2022-11-23T22:58:16.719Z,5.31
2022-11-23T23:00:47.028Z,5.18
2022-11-23T23:03:17.382Z,5.03
2022-11-23T23:05:57.293Z,5.01
2022-11-23T23:08:29.218Z,4.93
2022-11-23T23:10:59.612Z,4.87
2022-11-23T23:13:32.591Z,4.90
2022-11-23T23:16:08.332Z,4.74
2022-11-23T23:18:38.397Z,4.69
2022-11-23T23:21:12.519Z,4.63
2022-11-23T23:23:44.378Z,4.50
2022-11-23T23:26:17.273Z,4.44
2022-11-23T23:28:50.640Z,4.47
2022-11-23T23:31:20.895Z,4.35
2022-11-23T23:33:51.326Z,4.27
2022-11-23T23:36:24.027Z,4.28
2022-11-23T23:38:55.317Z,4.26
2022-11-23T23:41:25.551Z,4.40
2022-11-23T23:43:58.384Z,4.41
2022-11-23T23:46:29.011Z,4.63
2022-11-23T23:48:58.975Z,4.67
2022-11-23T23:51:29.585Z,4.72
2022-11-23T23:54:00.976Z,4.76
2022-11-23T23:56:32.353Z,4.72
2022-11-23T23:59:05.025Z,4.72
